sensor_id;sensor_type;location;lat;lon;timestamp;P1;durP1;ratioP1;P2;durP2;ratioP2
69532;SDS011;56729;52.036;5.332;2023-10-19T00:00:33;125.57;;;29.52;;
69532;SDS011;56729;52.036;5.332;2023-10-19T00:01:40;186.05;;;35.17;;
69532;SDS011;56729;52.036;5.332;2023-10-19T00:02:42;218.57;;;38.90;;
69532;SDS011;56729;52.036;5.332;2023-10-19T00:03:44;196.40;;;35.20;;
69532;SDS011;56729;52.036;5.332;2023-10-19T00:04:46;122.68;;;30.02;;
69532;SDS011;56729;52.036;5.332;2023-10-19T00:05:49;142.05;;;34.13;;
69532;SDS011;56729;52.036;5.332;2023-10-19T00:06:51;132.43;;;32.38;;
69532;SDS011;56729;52.036;5.332;2023-10-19T00:07:54;168.07;;;32.83;;
69532;SDS011;56729;52.036;5.332;2023-10-19T00:08:58;230.60;;;42.10;;
69532;SDS011;56729;52.036;5.332;2023-10-19T00:10:01;209.73;;;36.47;;
69532;SDS011;56729;52.036;5.332;2023-10-19T00:11:05;179.60;;;36.55;;
69532;SDS011;56729;52.036;5.332;2023-10-19T00:12:10;123.65;;;32.72;;
69532;SDS011;56729;52.036;5.332;2023-10-19T00:13:12;143.00;;;33.17;;
69532;SDS011;56729;52.036;5.332;2023-10-19T00:14:15;126.73;;;31.13;;
69532;SDS011;56729;52.036;5.332;2023-10-19T00:15:18;187.73;;;37.58;;
69532;SDS011;56729;52.036;5.332;2023-10-19T00:16:25;243.18;;;40.15;;
69532;SDS011;56729;52.036;5.332;2023-10-19T00:17:37;155.20;;;31.92;;
69532;SDS011;56729;52.036;5.332;2023-10-19T00:18:40;180.80;;;36.35;;
69532;SDS011;56729;52.036;5.332;2023-10-19T00:19:44;210.48;;;39.67;;
69532;SDS011;56729;52.036;5.332;2023-10-19T00:20:59;187.32;;;34.22;;
69532;SDS011;56729;52.036;5.332;2023-10-19T00:22:12;208.95;;;36.90;;
69532;SDS011;56729;52.036;5.332;2023-10-19T00:23:23;174.68;;;34.55;;
69532;SDS011;56729;52.036;5.332;2023-10-19T00:24:34;189.65;;;36.40;;
69532;SDS011;56729;52.036;5.332;2023-10-19T00:25:36;186.33;;;36.83;;
69532;SDS011;56729;52.036;5.332;2023-10-19T00:26:42;186.63;;;35.15;;
69532;SDS011;56729;52.036;5.332;2023-10-19T00:27:45;215.93;;;37.40;;
69532;SDS011;56729;52.036;5.332;2023-10-19T00:28:49;189.93;;;33.60;;
69532;SDS011;56729;52.036;5.332;2023-10-19T00:29:54;230.02;;;38.33;;
69532;SDS011;56729;52.036;5.332;2023-10-19T00:31:06;161.80;;;34.05;;
69532;SDS011;56729;52.036;5.332;2023-10-19T00:32:13;257.38;;;40.58;;
69532;SDS011;56729;52.036;5.332;2023-10-19T00:33:16;161.20;;;33.78;;
69532;SDS011;56729;52.036;5.332;2023-10-19T00:34:21;226.48;;;37.70;;
69532;SDS011;56729;52.036;5.332;2023-10-19T00:35:23;126.82;;;31.13;;
69532;SDS011;56729;52.036;5.332;2023-10-19T00:36:28;128.73;;;35.57;;
69532;SDS011;56729;52.036;5.332;2023-10-19T00:37:32;190.48;;;36.63;;
69532;SDS011;56729;52.036;5.332;2023-10-19T00:38:43;260.60;;;40.15;;
69532;SDS011;56729;52.036;5.332;2023-10-19T00:39:51;157.38;;;34.63;;
69532;SDS011;56729;52.036;5.332;2023-10-19T00:40:56;270.67;;;42.28;;
69532;SDS011;56729;52.036;5.332;2023-10-19T00:42:07;157.52;;;35.63;;
69532;SDS011;56729;52.036;5.332;2023-10-19T00:43:11;212.30;;;38.33;;
69532;SDS011;56729;52.036;5.332;2023-10-19T00:44:14;240.40;;;39.92;;
69532;SDS011;56729;52.036;5.332;2023-10-19T00:45:45;255.50;;;38.90;;
69532;SDS011;56729;52.036;5.332;2023-10-19T00:46:49;276.63;;;40.75;;
69532;SDS011;56729;52.036;5.332;2023-10-19T00:48:01;197.10;;;38.70;;
69532;SDS011;56729;52.036;5.332;2023-10-19T00:49:05;235.15;;;41.63;;
69532;SDS011;56729;52.036;5.332;2023-10-19T00:50:08;229.60;;;40.83;;
69532;SDS011;56729;52.036;5.332;2023-10-19T00:51:22;269.25;;;44.22;;
69532;SDS011;56729;52.036;5.332;2023-10-19T00:52:34;260.33;;;42.53;;
69532;SDS011;56729;52.036;5.332;2023-10-19T00:53:44;206.13;;;45.10;;
69532;SDS011;56729;52.036;5.332;2023-10-19T00:54:48;308.83;;;46.03;;
69532;SDS011;56729;52.036;5.332;2023-10-19T00:55:51;327.27;;;48.22;;
69532;SDS011;56729;52.036;5.332;2023-10-19T00:56:53;237.63;;;43.75;;
69532;SDS011;56729;52.036;5.332;2023-10-19T00:58:00;247.90;;;44.97;;
69532;SDS011;56729;52.036;5.332;2023-10-19T00:59:11;133.67;;;35.20;;
69532;SDS011;56729;52.036;5.332;2023-10-19T01:00:15;246.70;;;46.22;;
69532;SDS011;56729;52.036;5.332;2023-10-19T01:01:44;343.63;;;49.20;;
69532;SDS011;56729;52.036;5.332;2023-10-19T01:02:49;155.57;;;36.78;;
69532;SDS011;56729;52.036;5.332;2023-10-19T01:03:55;199.52;;;41.85;;
69532;SDS011;56729;52.036;5.332;2023-10-19T01:05:00;325.92;;;49.15;;
69532;SDS011;56729;52.036;5.332;2023-10-19T01:06:08;257.00;;;43.75;;
69532;SDS011;56729;52.036;5.332;2023-10-19T01:07:18;242.40;;;46.05;;
69532;SDS011;56729;52.036;5.332;2023-10-19T01:08:24;250.18;;;43.13;;
69532;SDS011;56729;52.036;5.332;2023-10-19T01:09:32;183.77;;;42.08;;
69532;SDS011;56729;52.036;5.332;2023-10-19T01:10:38;251.03;;;45.77;;
69532;SDS011;56729;52.036;5.332;2023-10-19T01:11:41;118.43;;;37.47;;
69532;SDS011;56729;52.036;5.332;2023-10-19T01:12:47;215.07;;;44.50;;
69532;SDS011;56729;52.036;5.332;2023-10-19T01:13:49;262.33;;;46.97;;
69532;SDS011;56729;52.036;5.332;2023-10-19T01:15:08;309.77;;;51.10;;
69532;SDS011;56729;52.036;5.332;2023-10-19T01:16:18;188.02;;;42.40;;
69532;SDS011;56729;52.036;5.332;2023-10-19T01:17:23;265.40;;;50.78;;
69532;SDS011;56729;52.036;5.332;2023-10-19T01:18:28;199.85;;;43.60;;
69532;SDS011;56729;52.036;5.332;2023-10-19T01:19:31;149.15;;;39.67;;
69532;SDS011;56729;52.036;5.332;2023-10-19T01:20:33;166.10;;;41.17;;
69532;SDS011;56729;52.036;5.332;2023-10-19T01:21:50;419.43;;;56.37;;
69532;SDS011;56729;52.036;5.332;2023-10-19T01:23:07;326.90;;;49.45;;
69532;SDS011;56729;52.036;5.332;2023-10-19T01:24:29;337.10;;;46.90;;
69532;SDS011;56729;52.036;5.332;2023-10-19T01:26:55;325.70;;;50.90;;
69532;SDS011;56729;52.036;5.332;2023-10-19T01:27:58;339.88;;;48.00;;
69532;SDS011;56729;52.036;5.332;2023-10-19T01:29:00;269.55;;;43.75;;
69532;SDS011;56729;52.036;5.332;2023-10-19T01:30:14;284.50;;;46.22;;
69532;SDS011;56729;52.036;5.332;2023-10-19T01:31:19;209.15;;;44.67;;
69532;SDS011;56729;52.036;5.332;2023-10-19T01:32:31;496.85;;;62.13;;
69532;SDS011;56729;52.036;5.332;2023-10-19T01:33:33;354.30;;;48.53;;
69532;SDS011;56729;52.036;5.332;2023-10-19T01:34:36;183.23;;;43.00;;
69532;SDS011;56729;52.036;5.332;2023-10-19T01:35:39;380.95;;;53.22;;
69532;SDS011;56729;52.036;5.332;2023-10-19T01:37:00;167.57;;;37.42;;
69532;SDS011;56729;52.036;5.332;2023-10-19T01:38:06;380.83;;;52.33;;
69532;SDS011;56729;52.036;5.332;2023-10-19T01:39:09;246.30;;;47.45;;
69532;SDS011;56729;52.036;5.332;2023-10-19T01:40:12;227.98;;;44.35;;
69532;SDS011;56729;52.036;5.332;2023-10-19T01:41:19;279.83;;;48.80;;
69532;SDS011;56729;52.036;5.332;2023-10-19T01:42:21;247.07;;;46.30;;
69532;SDS011;56729;52.036;5.332;2023-10-19T01:43:23;280.88;;;50.30;;
69532;SDS011;56729;52.036;5.332;2023-10-19T01:44:27;367.83;;;53.10;;
69532;SDS011;56729;52.036;5.332;2023-10-19T01:45:29;350.67;;;49.88;;
69532;SDS011;56729;52.036;5.332;2023-10-19T01:46:31;319.00;;;53.60;;
69532;SDS011;56729;52.036;5.332;2023-10-19T01:47:35;480.42;;;60.72;;
69532;SDS011;56729;52.036;5.332;2023-10-19T01:48:40;292.80;;;49.20;;
69532;SDS011;56729;52.036;5.332;2023-10-19T01:49:44;363.15;;;53.17;;
69532;SDS011;56729;52.036;5.332;2023-10-19T01:50:53;210.05;;;48.45;;
69532;SDS011;56729;52.036;5.332;2023-10-19T01:51:55;407.20;;;58.25;;
69532;SDS011;56729;52.036;5.332;2023-10-19T01:52:57;457.20;;;61.40;;
69532;SDS011;56729;52.036;5.332;2023-10-19T01:53:59;290.70;;;49.20;;
69532;SDS011;56729;52.036;5.332;2023-10-19T01:55:05;241.13;;;47.23;;
69532;SDS011;56729;52.036;5.332;2023-10-19T01:56:14;146.57;;;37.40;;
69532;SDS011;56729;52.036;5.332;2023-10-19T01:57:18;297.67;;;49.33;;
69532;SDS011;56729;52.036;5.332;2023-10-19T01:58:20;444.67;;;59.17;;
69532;SDS011;56729;52.036;5.332;2023-10-19T01:59:22;347.02;;;56.63;;
69532;SDS011;56729;52.036;5.332;2023-10-19T02:00:28;365.17;;;50.10;;
69532;SDS011;56729;52.036;5.332;2023-10-19T02:01:31;334.65;;;50.45;;
69532;SDS011;56729;52.036;5.332;2023-10-19T02:02:35;412.02;;;56.08;;
69532;SDS011;56729;52.036;5.332;2023-10-19T02:03:37;284.45;;;46.75;;
69532;SDS011;56729;52.036;5.332;2023-10-19T02:04:43;358.20;;;51.45;;
69532;SDS011;56729;52.036;5.332;2023-10-19T02:05:45;345.00;;;51.50;;
69532;SDS011;56729;52.036;5.332;2023-10-19T02:06:50;280.10;;;49.35;;
69532;SDS011;56729;52.036;5.332;2023-10-19T02:07:55;273.00;;;46.60;;
69532;SDS011;56729;52.036;5.332;2023-10-19T02:09:01;435.33;;;54.45;;
69532;SDS011;56729;52.036;5.332;2023-10-19T02:10:28;289.98;;;51.25;;
69532;SDS011;56729;52.036;5.332;2023-10-19T02:11:33;307.88;;;49.40;;
69532;SDS011;56729;52.036;5.332;2023-10-19T02:12:35;389.60;;;49.40;;
69532;SDS011;56729;52.036;5.332;2023-10-19T02:13:37;315.77;;;48.22;;
69532;SDS011;56729;52.036;5.332;2023-10-19T02:14:41;426.63;;;56.17;;
69532;SDS011;56729;52.036;5.332;2023-10-19T02:15:44;274.45;;;47.10;;
69532;SDS011;56729;52.036;5.332;2023-10-19T02:16:47;501.73;;;60.43;;
69532;SDS011;56729;52.036;5.332;2023-10-19T02:17:54;402.88;;;55.55;;
69532;SDS011;56729;52.036;5.332;2023-10-19T02:18:57;446.33;;;58.85;;
69532;SDS011;56729;52.036;5.332;2023-10-19T02:19:59;250.35;;;43.92;;
69532;SDS011;56729;52.036;5.332;2023-10-19T02:21:01;186.05;;;41.13;;
69532;SDS011;56729;52.036;5.332;2023-10-19T02:22:07;399.75;;;52.75;;
69532;SDS011;56729;52.036;5.332;2023-10-19T02:23:10;281.17;;;48.13;;
69532;SDS011;56729;52.036;5.332;2023-10-19T02:24:13;272.27;;;46.00;;
69532;SDS011;56729;52.036;5.332;2023-10-19T02:25:16;267.52;;;44.60;;
69532;SDS011;56729;52.036;5.332;2023-10-19T02:26:19;426.80;;;54.38;;
69532;SDS011;56729;52.036;5.332;2023-10-19T02:27:24;367.70;;;51.00;;
69532;SDS011;56729;52.036;5.332;2023-10-19T02:28:35;372.13;;;51.92;;
69532;SDS011;56729;52.036;5.332;2023-10-19T02:29:39;312.73;;;44.83;;
69532;SDS011;56729;52.036;5.332;2023-10-19T02:30:42;442.08;;;51.72;;
69532;SDS011;56729;52.036;5.332;2023-10-19T02:31:45;167.35;;;38.03;;
69532;SDS011;56729;52.036;5.332;2023-10-19T02:32:49;273.05;;;47.63;;
69532;SDS011;56729;52.036;5.332;2023-10-19T02:33:51;365.80;;;49.05;;
69532;SDS011;56729;52.036;5.332;2023-10-19T02:35:00;317.13;;;46.40;;
69532;SDS011;56729;52.036;5.332;2023-10-19T02:36:04;269.00;;;45.25;;
69532;SDS011;56729;52.036;5.332;2023-10-19T02:37:07;452.50;;;55.63;;
69532;SDS011;56729;52.036;5.332;2023-10-19T02:38:09;278.03;;;44.33;;
69532;SDS011;56729;52.036;5.332;2023-10-19T02:39:12;247.07;;;43.25;;
69532;SDS011;56729;52.036;5.332;2023-10-19T02:40:17;569.42;;;57.72;;
69532;SDS011;56729;52.036;5.332;2023-10-19T02:41:22;292.27;;;44.65;;
69532;SDS011;56729;52.036;5.332;2023-10-19T02:42:24;338.92;;;47.38;;
69532;SDS011;56729;52.036;5.332;2023-10-19T02:43:26;283.30;;;46.83;;
69532;SDS011;56729;52.036;5.332;2023-10-19T02:44:29;393.92;;;49.45;;
69532;SDS011;56729;52.036;5.332;2023-10-19T02:46:52;252.57;;;38.80;;
69532;SDS011;56729;52.036;5.332;2023-10-19T02:48:01;257.80;;;41.30;;
69532;SDS011;56729;52.036;5.332;2023-10-19T02:49:03;262.03;;;40.87;;
69532;SDS011;56729;52.036;5.332;2023-10-19T02:50:10;295.25;;;39.42;;
69532;SDS011;56729;52.036;5.332;2023-10-19T02:51:17;266.42;;;41.25;;
69532;SDS011;56729;52.036;5.332;2023-10-19T02:52:20;298.23;;;43.22;;
69532;SDS011;56729;52.036;5.332;2023-10-19T02:53:23;228.13;;;41.35;;
69532;SDS011;56729;52.036;5.332;2023-10-19T02:54:25;193.90;;;37.28;;
69532;SDS011;56729;52.036;5.332;2023-10-19T02:55:31;313.20;;;42.85;;
69532;SDS011;56729;52.036;5.332;2023-10-19T02:56:33;305.70;;;43.28;;
69532;SDS011;56729;52.036;5.332;2023-10-19T02:57:40;344.75;;;45.10;;
69532;SDS011;56729;52.036;5.332;2023-10-19T02:58:42;420.83;;;48.88;;
69532;SDS011;56729;52.036;5.332;2023-10-19T02:59:45;249.77;;;39.23;;
69532;SDS011;56729;52.036;5.332;2023-10-19T03:00:48;274.27;;;43.95;;
69532;SDS011;56729;52.036;5.332;2023-10-19T03:01:56;307.75;;;43.58;;
69532;SDS011;56729;52.036;5.332;2023-10-19T03:03:04;310.50;;;43.45;;
69532;SDS011;56729;52.036;5.332;2023-10-19T03:04:07;294.50;;;40.45;;
69532;SDS011;56729;52.036;5.332;2023-10-19T03:05:09;336.90;;;44.70;;
69532;SDS011;56729;52.036;5.332;2023-10-19T03:06:21;388.77;;;45.45;;
69532;SDS011;56729;52.036;5.332;2023-10-19T03:07:23;393.88;;;44.20;;
69532;SDS011;56729;52.036;5.332;2023-10-19T03:08:25;369.33;;;44.40;;
69532;SDS011;56729;52.036;5.332;2023-10-19T03:09:28;387.88;;;44.72;;
69532;SDS011;56729;52.036;5.332;2023-10-19T03:10:31;390.97;;;46.00;;
69532;SDS011;56729;52.036;5.332;2023-10-19T03:11:43;422.13;;;47.33;;
69532;SDS011;56729;52.036;5.332;2023-10-19T03:12:45;294.80;;;39.65;;
69532;SDS011;56729;52.036;5.332;2023-10-19T03:13:48;253.02;;;38.15;;
69532;SDS011;56729;52.036;5.332;2023-10-19T03:14:51;312.20;;;40.85;;
69532;SDS011;56729;52.036;5.332;2023-10-19T03:15:53;257.58;;;38.53;;
69532;SDS011;56729;52.036;5.332;2023-10-19T03:16:55;192.48;;;35.88;;
69532;SDS011;56729;52.036;5.332;2023-10-19T03:17:59;240.35;;;36.65;;
69532;SDS011;56729;52.036;5.332;2023-10-19T03:19:02;305.65;;;39.22;;
69532;SDS011;56729;52.036;5.332;2023-10-19T03:20:05;158.10;;;31.30;;
69532;SDS011;56729;52.036;5.332;2023-10-19T03:21:08;223.50;;;34.20;;
69532;SDS011;56729;52.036;5.332;2023-10-19T03:22:12;265.00;;;34.85;;
69532;SDS011;56729;52.036;5.332;2023-10-19T03:23:16;311.00;;;41.40;;
69532;SDS011;56729;52.036;5.332;2023-10-19T03:24:18;224.15;;;36.33;;
69532;SDS011;56729;52.036;5.332;2023-10-19T03:25:37;230.40;;;34.03;;
69532;SDS011;56729;52.036;5.332;2023-10-19T03:26:58;268.60;;;33.80;;
69532;SDS011;56729;52.036;5.332;2023-10-19T03:28:01;362.13;;;40.63;;
69532;SDS011;56729;52.036;5.332;2023-10-19T03:29:14;263.70;;;33.53;;
69532;SDS011;56729;52.036;5.332;2023-10-19T03:30:17;272.77;;;35.70;;
69532;SDS011;56729;52.036;5.332;2023-10-19T03:31:21;238.35;;;34.65;;
69532;SDS011;56729;52.036;5.332;2023-10-19T03:32:24;256.53;;;33.40;;
69532;SDS011;56729;52.036;5.332;2023-10-19T03:33:34;174.95;;;29.35;;
69532;SDS011;56729;52.036;5.332;2023-10-19T03:34:38;288.83;;;36.75;;
69532;SDS011;56729;52.036;5.332;2023-10-19T03:35:44;311.92;;;38.55;;
69532;SDS011;56729;52.036;5.332;2023-10-19T03:36:46;255.63;;;34.85;;
69532;SDS011;56729;52.036;5.332;2023-10-19T03:37:49;439.90;;;43.22;;
69532;SDS011;56729;52.036;5.332;2023-10-19T03:38:53;269.48;;;34.58;;
69532;SDS011;56729;52.036;5.332;2023-10-19T03:40:01;211.43;;;31.40;;
69532;SDS011;56729;52.036;5.332;2023-10-19T03:41:09;323.85;;;37.97;;
69532;SDS011;56729;52.036;5.332;2023-10-19T03:42:12;448.05;;;41.40;;
69532;SDS011;56729;52.036;5.332;2023-10-19T03:43:17;391.53;;;38.90;;
69532;SDS011;56729;52.036;5.332;2023-10-19T03:44:23;216.65;;;32.65;;
69532;SDS011;56729;52.036;5.332;2023-10-19T03:45:25;164.98;;;28.10;;
69532;SDS011;56729;52.036;5.332;2023-10-19T03:46:29;227.18;;;30.85;;
69532;SDS011;56729;52.036;5.332;2023-10-19T03:47:32;259.92;;;33.60;;
69532;SDS011;56729;52.036;5.332;2023-10-19T03:48:37;118.18;;;25.48;;
69532;SDS011;56729;52.036;5.332;2023-10-19T03:49:40;263.88;;;32.65;;
69532;SDS011;56729;52.036;5.332;2023-10-19T03:50:42;271.92;;;34.88;;
69532;SDS011;56729;52.036;5.332;2023-10-19T03:51:46;239.23;;;34.28;;
69532;SDS011;56729;52.036;5.332;2023-10-19T03:53:00;223.23;;;30.45;;
69532;SDS011;56729;52.036;5.332;2023-10-19T03:54:02;195.17;;;29.40;;
69532;SDS011;56729;52.036;5.332;2023-10-19T03:55:08;390.80;;;37.55;;
69532;SDS011;56729;52.036;5.332;2023-10-19T03:56:16;316.52;;;35.65;;
69532;SDS011;56729;52.036;5.332;2023-10-19T03:57:18;498.73;;;41.95;;
69532;SDS011;56729;52.036;5.332;2023-10-19T03:58:21;322.55;;;35.95;;
69532;SDS011;56729;52.036;5.332;2023-10-19T03:59:23;210.63;;;31.55;;
69532;SDS011;56729;52.036;5.332;2023-10-19T04:00:31;189.73;;;27.55;;
69532;SDS011;56729;52.036;5.332;2023-10-19T04:01:34;201.73;;;27.35;;
69532;SDS011;56729;52.036;5.332;2023-10-19T04:02:37;324.35;;;34.95;;
69532;SDS011;56729;52.036;5.332;2023-10-19T04:03:40;172.52;;;27.67;;
69532;SDS011;56729;52.036;5.332;2023-10-19T04:04:43;214.93;;;28.47;;
69532;SDS011;56729;52.036;5.332;2023-10-19T04:05:45;126.90;;;23.67;;
69532;SDS011;56729;52.036;5.332;2023-10-19T04:06:50;174.85;;;28.05;;
69532;SDS011;56729;52.036;5.332;2023-10-19T04:07:59;221.60;;;27.90;;
69532;SDS011;56729;52.036;5.332;2023-10-19T04:09:01;204.23;;;28.40;;
69532;SDS011;56729;52.036;5.332;2023-10-19T04:10:05;288.30;;;31.30;;
69532;SDS011;56729;52.036;5.332;2023-10-19T04:11:08;171.57;;;25.77;;
69532;SDS011;56729;52.036;5.332;2023-10-19T04:12:13;135.90;;;24.75;;
69532;SDS011;56729;52.036;5.332;2023-10-19T04:13:18;260.10;;;31.40;;
69532;SDS011;56729;52.036;5.332;2023-10-19T04:14:20;166.75;;;28.00;;
69532;SDS011;56729;52.036;5.332;2023-10-19T04:15:22;236.37;;;29.17;;
69532;SDS011;56729;52.036;5.332;2023-10-19T04:16:27;198.73;;;27.52;;
69532;SDS011;56729;52.036;5.332;2023-10-19T04:17:29;152.80;;;24.80;;
69532;SDS011;56729;52.036;5.332;2023-10-19T04:18:33;316.75;;;33.00;;
69532;SDS011;56729;52.036;5.332;2023-10-19T04:19:35;215.60;;;25.58;;
69532;SDS011;56729;52.036;5.332;2023-10-19T04:20:38;214.85;;;25.90;;
69532;SDS011;56729;52.036;5.332;2023-10-19T04:21:43;363.58;;;28.77;;
69532;SDS011;56729;52.036;5.332;2023-10-19T04:22:48;315.17;;;31.83;;
69532;SDS011;56729;52.036;5.332;2023-10-19T04:23:52;295.40;;;28.85;;
69532;SDS011;56729;52.036;5.332;2023-10-19T04:24:54;591.42;;;37.83;;
69532;SDS011;56729;52.036;5.332;2023-10-19T04:25:56;363.50;;;27.33;;
69532;SDS011;56729;52.036;5.332;2023-10-19T04:26:59;967.83;;;40.33;;
69532;SDS011;56729;52.036;5.332;2023-10-19T04:28:05;1257.80;;;47.42;;
69532;SDS011;56729;52.036;5.332;2023-10-19T04:29:07;842.10;;;31.75;;
69532;SDS011;56729;52.036;5.332;2023-10-19T04:30:13;938.40;;;34.67;;
69532;SDS011;56729;52.036;5.332;2023-10-19T04:31:28;841.95;;;36.03;;
69532;SDS011;56729;52.036;5.332;2023-10-19T04:32:30;592.50;;;30.17;;
69532;SDS011;56729;52.036;5.332;2023-10-19T04:33:33;529.05;;;23.23;;
69532;SDS011;56729;52.036;5.332;2023-10-19T04:34:35;1005.88;;;36.95;;
69532;SDS011;56729;52.036;5.332;2023-10-19T04:35:40;493.52;;;20.05;;
69532;SDS011;56729;52.036;5.332;2023-10-19T04:36:43;530.10;;;28.43;;
69532;SDS011;56729;52.036;5.332;2023-10-19T04:37:44;447.77;;;23.48;;
69532;SDS011;56729;52.036;5.332;2023-10-19T04:38:46;330.20;;;22.40;;
69532;SDS011;56729;52.036;5.332;2023-10-19T04:39:48;145.80;;;14.85;;
69532;SDS011;56729;52.036;5.332;2023-10-19T04:40:51;767.45;;;32.33;;
69532;SDS011;56729;52.036;5.332;2023-10-19T04:41:52;409.73;;;19.50;;
69532;SDS011;56729;52.036;5.332;2023-10-19T04:42:54;651.33;;;27.77;;
69532;SDS011;56729;52.036;5.332;2023-10-19T04:43:56;426.52;;;19.30;;
69532;SDS011;56729;52.036;5.332;2023-10-19T04:44:59;616.58;;;24.08;;
69532;SDS011;56729;52.036;5.332;2023-10-19T04:46:08;647.45;;;27.13;;
69532;SDS011;56729;52.036;5.332;2023-10-19T04:47:13;623.67;;;23.87;;
69532;SDS011;56729;52.036;5.332;2023-10-19T04:48:15;692.88;;;25.25;;
69532;SDS011;56729;52.036;5.332;2023-10-19T04:49:17;495.98;;;21.60;;
69532;SDS011;56729;52.036;5.332;2023-10-19T04:50:19;613.50;;;22.35;;
69532;SDS011;56729;52.036;5.332;2023-10-19T04:51:20;143.23;;;10.55;;
69532;SDS011;56729;52.036;5.332;2023-10-19T04:52:22;352.25;;;14.38;;
69532;SDS011;56729;52.036;5.332;2023-10-19T04:53:24;360.50;;;15.00;;
69532;SDS011;56729;52.036;5.332;2023-10-19T04:54:26;209.27;;;11.75;;
69532;SDS011;56729;52.036;5.332;2023-10-19T04:55:29;457.17;;;18.98;;
69532;SDS011;56729;52.036;5.332;2023-10-19T04:56:31;441.05;;;20.73;;
69532;SDS011;56729;52.036;5.332;2023-10-19T04:57:33;422.17;;;18.67;;
69532;SDS011;56729;52.036;5.332;2023-10-19T04:58:35;221.30;;;17.40;;
69532;SDS011;56729;52.036;5.332;2023-10-19T04:59:38;188.23;;;10.55;;
69532;SDS011;56729;52.036;5.332;2023-10-19T05:00:41;79.72;;;10.25;;
69532;SDS011;56729;52.036;5.332;2023-10-19T05:01:42;127.50;;;10.52;;
69532;SDS011;56729;52.036;5.332;2023-10-19T05:02:45;164.88;;;13.50;;
69532;SDS011;56729;52.036;5.332;2023-10-19T05:03:47;88.30;;;11.25;;
69532;SDS011;56729;52.036;5.332;2023-10-19T05:04:49;139.07;;;14.25;;
69532;SDS011;56729;52.036;5.332;2023-10-19T05:05:51;129.38;;;12.50;;
69532;SDS011;56729;52.036;5.332;2023-10-19T05:06:53;343.17;;;16.30;;
69532;SDS011;56729;52.036;5.332;2023-10-19T05:07:56;230.40;;;14.63;;
69532;SDS011;56729;52.036;5.332;2023-10-19T05:08:59;105.22;;;10.60;;
69532;SDS011;56729;52.036;5.332;2023-10-19T05:10:03;232.07;;;14.73;;
69532;SDS011;56729;52.036;5.332;2023-10-19T05:11:07;201.27;;;13.45;;
69532;SDS011;56729;52.036;5.332;2023-10-19T05:12:08;75.65;;;12.40;;
69532;SDS011;56729;52.036;5.332;2023-10-19T05:13:11;44.15;;;8.35;;
69532;SDS011;56729;52.036;5.332;2023-10-19T05:14:13;46.58;;;8.93;;
69532;SDS011;56729;52.036;5.332;2023-10-19T05:15:15;38.08;;;8.65;;
69532;SDS011;56729;52.036;5.332;2023-10-19T05:16:17;48.35;;;9.30;;
69532;SDS011;56729;52.036;5.332;2023-10-19T05:17:19;41.30;;;9.85;;
69532;SDS011;56729;52.036;5.332;2023-10-19T05:18:22;64.53;;;9.70;;
69532;SDS011;56729;52.036;5.332;2023-10-19T05:19:24;37.65;;;8.30;;
69532;SDS011;56729;52.036;5.332;2023-10-19T05:20:26;63.38;;;9.82;;
69532;SDS011;56729;52.036;5.332;2023-10-19T05:21:28;42.47;;;9.65;;
69532;SDS011;56729;52.036;5.332;2023-10-19T05:22:31;52.05;;;9.70;;
69532;SDS011;56729;52.036;5.332;2023-10-19T05:23:35;49.10;;;9.57;;
69532;SDS011;56729;52.036;5.332;2023-10-19T05:24:37;45.97;;;8.43;;
69532;SDS011;56729;52.036;5.332;2023-10-19T05:25:39;43.03;;;8.40;;
69532;SDS011;56729;52.036;5.332;2023-10-19T05:26:41;44.38;;;7.88;;
69532;SDS011;56729;52.036;5.332;2023-10-19T05:27:43;53.55;;;10.25;;
69532;SDS011;56729;52.036;5.332;2023-10-19T05:28:47;46.60;;;8.50;;
69532;SDS011;56729;52.036;5.332;2023-10-19T05:29:49;43.58;;;7.78;;
69532;SDS011;56729;52.036;5.332;2023-10-19T05:30:52;40.08;;;7.38;;
69532;SDS011;56729;52.036;5.332;2023-10-19T05:31:55;59.58;;;8.85;;
69532;SDS011;56729;52.036;5.332;2023-10-19T05:32:59;58.03;;;8.93;;
69532;SDS011;56729;52.036;5.332;2023-10-19T05:34:02;56.17;;;8.93;;
69532;SDS011;56729;52.036;5.332;2023-10-19T05:35:05;42.60;;;8.05;;
69532;SDS011;56729;52.036;5.332;2023-10-19T05:36:07;37.88;;;7.53;;
69532;SDS011;56729;52.036;5.332;2023-10-19T05:37:09;46.20;;;7.43;;
69532;SDS011;56729;52.036;5.332;2023-10-19T05:38:12;31.02;;;6.60;;
69532;SDS011;56729;52.036;5.332;2023-10-19T05:39:14;58.87;;;9.20;;
69532;SDS011;56729;52.036;5.332;2023-10-19T05:40:16;43.15;;;9.00;;
69532;SDS011;56729;52.036;5.332;2023-10-19T05:41:19;56.13;;;8.60;;
69532;SDS011;56729;52.036;5.332;2023-10-19T05:42:22;28.30;;;6.60;;
69532;SDS011;56729;52.036;5.332;2023-10-19T05:43:25;49.30;;;7.93;;
69532;SDS011;56729;52.036;5.332;2023-10-19T05:44:28;57.47;;;9.13;;
69532;SDS011;56729;52.036;5.332;2023-10-19T05:45:32;57.13;;;8.93;;
69532;SDS011;56729;52.036;5.332;2023-10-19T05:46:34;42.90;;;7.50;;
69532;SDS011;56729;52.036;5.332;2023-10-19T05:47:36;28.98;;;7.80;;
69532;SDS011;56729;52.036;5.332;2023-10-19T05:48:38;34.28;;;5.63;;
69532;SDS011;56729;52.036;5.332;2023-10-19T05:49:40;49.13;;;7.60;;
69532;SDS011;56729;52.036;5.332;2023-10-19T05:50:42;42.90;;;7.47;;
69532;SDS011;56729;52.036;5.332;2023-10-19T05:51:44;19.65;;;5.03;;
69532;SDS011;56729;52.036;5.332;2023-10-19T05:52:46;67.10;;;8.02;;
69532;SDS011;56729;52.036;5.332;2023-10-19T05:53:50;44.30;;;7.10;;
69532;SDS011;56729;52.036;5.332;2023-10-19T05:54:52;41.22;;;6.75;;
69532;SDS011;56729;52.036;5.332;2023-10-19T05:55:55;43.05;;;7.20;;
69532;SDS011;56729;52.036;5.332;2023-10-19T05:56:57;38.70;;;6.63;;
69532;SDS011;56729;52.036;5.332;2023-10-19T05:57:59;49.92;;;7.30;;
69532;SDS011;56729;52.036;5.332;2023-10-19T05:59:01;27.80;;;5.97;;
69532;SDS011;56729;52.036;5.332;2023-10-19T06:00:04;36.73;;;5.83;;
69532;SDS011;56729;52.036;5.332;2023-10-19T06:01:12;55.88;;;8.98;;
69532;SDS011;56729;52.036;5.332;2023-10-19T06:02:14;27.23;;;5.20;;
69532;SDS011;56729;52.036;5.332;2023-10-19T06:03:16;44.35;;;6.65;;
69532;SDS011;56729;52.036;5.332;2023-10-19T06:04:19;24.58;;;5.15;;
69532;SDS011;56729;52.036;5.332;2023-10-19T06:05:22;55.35;;;6.80;;
69532;SDS011;56729;52.036;5.332;2023-10-19T06:06:25;29.52;;;5.97;;
69532;SDS011;56729;52.036;5.332;2023-10-19T06:07:27;41.80;;;6.10;;
69532;SDS011;56729;52.036;5.332;2023-10-19T06:08:29;31.10;;;6.53;;
69532;SDS011;56729;52.036;5.332;2023-10-19T06:09:32;36.60;;;6.78;;
69532;SDS011;56729;52.036;5.332;2023-10-19T06:10:34;38.80;;;7.37;;
69532;SDS011;56729;52.036;5.332;2023-10-19T06:11:37;28.52;;;5.28;;
69532;SDS011;56729;52.036;5.332;2023-10-19T06:12:44;32.17;;;5.72;;
69532;SDS011;56729;52.036;5.332;2023-10-19T06:13:47;39.88;;;7.38;;
69532;SDS011;56729;52.036;5.332;2023-10-19T06:14:49;76.55;;;8.80;;
69532;SDS011;56729;52.036;5.332;2023-10-19T06:15:51;40.97;;;5.85;;
69532;SDS011;56729;52.036;5.332;2023-10-19T06:16:53;54.33;;;7.22;;